Open Full Screen Window  High Contrast Mode
Wind Gusting 00 knots
03
November 27, 2014 12:21 AM EST
Weather Information
Wind Direction
  260 °
Wind Speed
  03 kt (3 mph)
Wind Gust
  00 kt (0 mph)
Altimeter
30.01 in
Visibility
10 SM
Temperature
-01° C
30° F
Dewpoint
-04° C
25° F
Humidity
80%
1hr Rain Fall
00.00 in.
24hr Rain Fall
00.00 in.
Sky Condition
Overcast @ 4,900 ft
VFR

METAR KPOV 270521Z AUTO 26003KT 10SM OVC049 M01/M04 A3001 RMK AO2 T10081042

*Background is not an actual portrayal of the airport.